sensor_id;sensor_type;location;lat;lon;timestamp;temperature;humidity
4215;DHT22;2121;48.062;7.850;2023-07-29T00:00:56;17.00;99.90
4215;DHT22;2121;48.062;7.850;2023-07-29T00:03:22;17.10;99.90
4215;DHT22;2121;48.062;7.850;2023-07-29T00:05:48;17.10;99.90
4215;DHT22;2121;48.062;7.850;2023-07-29T00:08:14;17.10;99.90
4215;DHT22;2121;48.062;7.850;2023-07-29T00:10:40;17.00;99.90
4215;DHT22;2121;48.062;7.850;2023-07-29T00:13:06;17.00;99.90
4215;DHT22;2121;48.062;7.850;2023-07-29T00:15:32;17.00;99.90
4215;DHT22;2121;48.062;7.850;2023-07-29T00:17:58;17.00;99.90
4215;DHT22;2121;48.062;7.850;2023-07-29T00:20:24;17.00;99.90
4215;DHT22;2121;48.062;7.850;2023-07-29T00:22:49;17.00;99.90
4215;DHT22;2121;48.062;7.850;2023-07-29T00:25:18;16.90;99.90
4215;DHT22;2121;48.062;7.850;2023-07-29T00:27:44;16.80;99.90
4215;DHT22;2121;48.062;7.850;2023-07-29T00:30:10;16.90;99.90
4215;DHT22;2121;48.062;7.850;2023-07-29T00:32:36;16.90;99.90
4215;DHT22;2121;48.062;7.850;2023-07-29T00:35:02;17.00;99.90
4215;DHT22;2121;48.062;7.850;2023-07-29T00:37:29;17.10;99.90
4215;DHT22;2121;48.062;7.850;2023-07-29T00:39:56;17.10;99.90
4215;DHT22;2121;48.062;7.850;2023-07-29T00:42:21;17.10;99.90
4215;DHT22;2121;48.062;7.850;2023-07-29T00:44:47;17.00;99.90
4215;DHT22;2121;48.062;7.850;2023-07-29T00:47:15;17.00;99.90
4215;DHT22;2121;48.062;7.850;2023-07-29T00:49:42;17.10;99.90
4215;DHT22;2121;48.062;7.850;2023-07-29T00:52:09;17.10;99.90
4215;DHT22;2121;48.062;7.850;2023-07-29T00:54:38;17.20;99.90
4215;DHT22;2121;48.062;7.850;2023-07-29T00:57:05;17.20;99.90
4215;DHT22;2121;48.062;7.850;2023-07-29T00:59:33;17.20;99.90
4215;DHT22;2121;48.062;7.850;2023-07-29T01:02:00;17.30;99.90
4215;DHT22;2121;48.062;7.850;2023-07-29T01:04:27;17.30;99.90
4215;DHT22;2121;48.062;7.850;2023-07-29T01:09:50;17.10;99.90
4215;DHT22;2121;48.062;7.850;2023-07-29T01:12:24;17.20;99.90
4215;DHT22;2121;48.062;7.850;2023-07-29T01:17:47;17.30;99.90
4215;DHT22;2121;48.062;7.850;2023-07-29T01:20:16;17.30;99.90
4215;DHT22;2121;48.062;7.850;2023-07-29T01:22:43;17.30;99.90
4215;DHT22;2121;48.062;7.850;2023-07-29T01:25:09;17.20;99.90
4215;DHT22;2121;48.062;7.850;2023-07-29T01:27:34;17.10;99.90
4215;DHT22;2121;48.062;7.850;2023-07-29T01:30:02;17.00;99.90
4215;DHT22;2121;48.062;7.850;2023-07-29T01:35:48;16.90;99.90
4215;DHT22;2121;48.062;7.850;2023-07-29T01:38:19;17.00;99.90
4215;DHT22;2121;48.062;7.850;2023-07-29T01:41:04;17.00;99.90
4215;DHT22;2121;48.062;7.850;2023-07-29T01:43:32;17.10;99.90
4215;DHT22;2121;48.062;7.850;2023-07-29T01:45:58;17.10;99.90
4215;DHT22;2121;48.062;7.850;2023-07-29T01:48:26;17.10;99.90
4215;DHT22;2121;48.062;7.850;2023-07-29T01:50:54;17.10;99.90
4215;DHT22;2121;48.062;7.850;2023-07-29T01:53:19;17.10;99.90
4215;DHT22;2121;48.062;7.850;2023-07-29T01:55:45;17.10;99.90
4215;DHT22;2121;48.062;7.850;2023-07-29T01:58:11;17.20;99.90
4215;DHT22;2121;48.062;7.850;2023-07-29T02:00:37;17.20;99.90
4215;DHT22;2121;48.062;7.850;2023-07-29T02:03:03;17.30;99.90
4215;DHT22;2121;48.062;7.850;2023-07-29T02:05:28;17.30;99.90
4215;DHT22;2121;48.062;7.850;2023-07-29T02:07:55;17.20;99.90
4215;DHT22;2121;48.062;7.850;2023-07-29T02:10:20;17.30;99.90
4215;DHT22;2121;48.062;7.850;2023-07-29T02:12:46;17.40;99.90
4215;DHT22;2121;48.062;7.850;2023-07-29T02:15:12;17.30;99.90
4215;DHT22;2121;48.062;7.850;2023-07-29T02:17:37;17.30;99.90
4215;DHT22;2121;48.062;7.850;2023-07-29T02:20:04;17.20;99.90
4215;DHT22;2121;48.062;7.850;2023-07-29T02:22:30;17.20;99.90
4215;DHT22;2121;48.062;7.850;2023-07-29T02:24:55;17.20;99.90
4215;DHT22;2121;48.062;7.850;2023-07-29T02:27:21;17.20;99.90
4215;DHT22;2121;48.062;7.850;2023-07-29T02:29:47;17.20;99.90
4215;DHT22;2121;48.062;7.850;2023-07-29T02:32:13;17.20;99.90
4215;DHT22;2121;48.062;7.850;2023-07-29T02:34:39;17.20;99.90
4215;DHT22;2121;48.062;7.850;2023-07-29T02:37:05;17.30;99.90
4215;DHT22;2121;48.062;7.850;2023-07-29T02:39:31;17.40;99.90
4215;DHT22;2121;48.062;7.850;2023-07-29T02:41:57;17.40;99.90
4215;DHT22;2121;48.062;7.850;2023-07-29T02:44:24;17.40;99.90
4215;DHT22;2121;48.062;7.850;2023-07-29T02:46:50;17.50;99.90
4215;DHT22;2121;48.062;7.850;2023-07-29T02:49:17;17.60;99.90
4215;DHT22;2121;48.062;7.850;2023-07-29T02:51:43;17.50;99.90
4215;DHT22;2121;48.062;7.850;2023-07-29T02:54:09;17.50;99.90
4215;DHT22;2121;48.062;7.850;2023-07-29T02:56:34;17.40;99.90
4215;DHT22;2121;48.062;7.850;2023-07-29T02:59:00;17.40;99.90
4215;DHT22;2121;48.062;7.850;2023-07-29T03:01:26;17.30;99.90
4215;DHT22;2121;48.062;7.850;2023-07-29T03:03:52;17.30;99.90
4215;DHT22;2121;48.062;7.850;2023-07-29T03:06:18;17.30;99.90
4215;DHT22;2121;48.062;7.850;2023-07-29T03:08:44;17.30;99.90
4215;DHT22;2121;48.062;7.850;2023-07-29T03:11:13;17.30;99.90
4215;DHT22;2121;48.062;7.850;2023-07-29T03:13:39;17.30;99.90
4215;DHT22;2121;48.062;7.850;2023-07-29T03:16:07;17.30;99.90
4215;DHT22;2121;48.062;7.850;2023-07-29T03:18:34;17.40;99.90
4215;DHT22;2121;48.062;7.850;2023-07-29T03:21:00;17.50;99.90
4215;DHT22;2121;48.062;7.850;2023-07-29T03:23:27;17.50;99.90
4215;DHT22;2121;48.062;7.850;2023-07-29T03:25:55;17.40;99.90
4215;DHT22;2121;48.062;7.850;2023-07-29T03:28:33;17.20;99.90
4215;DHT22;2121;48.062;7.850;2023-07-29T03:30:59;17.20;99.90
4215;DHT22;2121;48.062;7.850;2023-07-29T03:33:25;17.10;99.90
4215;DHT22;2121;48.062;7.850;2023-07-29T03:35:52;17.00;99.90
4215;DHT22;2121;48.062;7.850;2023-07-29T03:38:18;16.90;99.90
4215;DHT22;2121;48.062;7.850;2023-07-29T03:40:44;16.90;99.90
4215;DHT22;2121;48.062;7.850;2023-07-29T03:43:10;17.00;99.90
4215;DHT22;2121;48.062;7.850;2023-07-29T03:45:36;17.00;99.90
4215;DHT22;2121;48.062;7.850;2023-07-29T03:48:02;17.00;99.90
4215;DHT22;2121;48.062;7.850;2023-07-29T03:50:29;16.90;99.90
4215;DHT22;2121;48.062;7.850;2023-07-29T03:52:56;16.90;99.90
4215;DHT22;2121;48.062;7.850;2023-07-29T03:55:22;16.90;99.90
4215;DHT22;2121;48.062;7.850;2023-07-29T03:57:48;16.90;99.90
4215;DHT22;2121;48.062;7.850;2023-07-29T04:00:14;16.80;99.90
4215;DHT22;2121;48.062;7.850;2023-07-29T04:02:41;16.90;99.90
4215;DHT22;2121;48.062;7.850;2023-07-29T04:05:07;17.00;99.90
4215;DHT22;2121;48.062;7.850;2023-07-29T04:07:34;17.20;99.90
4215;DHT22;2121;48.062;7.850;2023-07-29T04:10:01;17.30;99.90
4215;DHT22;2121;48.062;7.850;2023-07-29T04:12:27;17.20;99.90
4215;DHT22;2121;48.062;7.850;2023-07-29T04:14:53;17.30;99.90
4215;DHT22;2121;48.062;7.850;2023-07-29T04:17:19;17.20;99.90
4215;DHT22;2121;48.062;7.850;2023-07-29T04:19:44;17.20;99.90
4215;DHT22;2121;48.062;7.850;2023-07-29T04:22:10;17.20;99.90
4215;DHT22;2121;48.062;7.850;2023-07-29T04:24:37;17.10;99.90
4215;DHT22;2121;48.062;7.850;2023-07-29T04:27:03;17.20;99.90
4215;DHT22;2121;48.062;7.850;2023-07-29T04:29:29;17.20;99.90
4215;DHT22;2121;48.062;7.850;2023-07-29T04:31:55;17.20;99.90
4215;DHT22;2121;48.062;7.850;2023-07-29T04:34:21;17.40;99.90
4215;DHT22;2121;48.062;7.850;2023-07-29T04:36:47;17.50;99.90
4215;DHT22;2121;48.062;7.850;2023-07-29T04:39:13;17.60;99.90
4215;DHT22;2121;48.062;7.850;2023-07-29T04:41:39;17.70;99.90
4215;DHT22;2121;48.062;7.850;2023-07-29T04:44:05;17.70;99.90
4215;DHT22;2121;48.062;7.850;2023-07-29T04:46:31;17.80;99.90
4215;DHT22;2121;48.062;7.850;2023-07-29T04:48:56;17.90;99.90
4215;DHT22;2121;48.062;7.850;2023-07-29T04:51:23;18.00;99.90
4215;DHT22;2121;48.062;7.850;2023-07-29T04:53:50;18.00;99.90
4215;DHT22;2121;48.062;7.850;2023-07-29T04:56:16;18.00;99.90
4215;DHT22;2121;48.062;7.850;2023-07-29T04:58:42;18.10;99.90
4215;DHT22;2121;48.062;7.850;2023-07-29T05:01:07;18.10;99.90
4215;DHT22;2121;48.062;7.850;2023-07-29T05:03:33;18.10;99.90
4215;DHT22;2121;48.062;7.850;2023-07-29T05:05:59;18.20;99.90
4215;DHT22;2121;48.062;7.850;2023-07-29T05:08:26;18.20;99.90
4215;DHT22;2121;48.062;7.850;2023-07-29T05:10:53;18.30;99.90
4215;DHT22;2121;48.062;7.850;2023-07-29T05:13:19;18.30;99.90
4215;DHT22;2121;48.062;7.850;2023-07-29T05:15:47;18.30;99.90
4215;DHT22;2121;48.062;7.850;2023-07-29T05:18:14;18.40;99.90
4215;DHT22;2121;48.062;7.850;2023-07-29T05:20:41;18.50;99.90
4215;DHT22;2121;48.062;7.850;2023-07-29T05:23:06;18.70;99.90
4215;DHT22;2121;48.062;7.850;2023-07-29T05:25:32;18.70;99.90
4215;DHT22;2121;48.062;7.850;2023-07-29T05:28:00;18.80;99.90
4215;DHT22;2121;48.062;7.850;2023-07-29T05:30:26;18.90;99.90
4215;DHT22;2121;48.062;7.850;2023-07-29T05:32:59;19.00;99.90
4215;DHT22;2121;48.062;7.850;2023-07-29T05:35:25;19.00;99.90
4215;DHT22;2121;48.062;7.850;2023-07-29T05:37:51;19.00;99.90
4215;DHT22;2121;48.062;7.850;2023-07-29T05:40:17;18.90;99.90
4215;DHT22;2121;48.062;7.850;2023-07-29T05:42:43;19.00;99.90
4215;DHT22;2121;48.062;7.850;2023-07-29T05:45:10;19.00;99.90
4215;DHT22;2121;48.062;7.850;2023-07-29T05:47:36;19.10;99.90
4215;DHT22;2121;48.062;7.850;2023-07-29T05:50:02;18.90;99.90
4215;DHT22;2121;48.062;7.850;2023-07-29T05:52:33;18.50;99.90
4215;DHT22;2121;48.062;7.850;2023-07-29T05:54:59;18.30;99.90
4215;DHT22;2121;48.062;7.850;2023-07-29T05:57:25;18.30;99.90
4215;DHT22;2121;48.062;7.850;2023-07-29T05:59:51;18.40;99.90
4215;DHT22;2121;48.062;7.850;2023-07-29T06:02:16;18.60;99.90
4215;DHT22;2121;48.062;7.850;2023-07-29T06:04:42;18.80;99.90
4215;DHT22;2121;48.062;7.850;2023-07-29T06:07:08;19.00;99.90
4215;DHT22;2121;48.062;7.850;2023-07-29T06:09:34;19.10;99.90
4215;DHT22;2121;48.062;7.850;2023-07-29T06:11:59;19.00;99.90
4215;DHT22;2121;48.062;7.850;2023-07-29T06:14:25;18.90;99.90
4215;DHT22;2121;48.062;7.850;2023-07-29T06:16:51;18.70;99.90
4215;DHT22;2121;48.062;7.850;2023-07-29T06:19:19;18.50;99.90
4215;DHT22;2121;48.062;7.850;2023-07-29T06:21:45;18.50;99.90
4215;DHT22;2121;48.062;7.850;2023-07-29T06:24:11;18.50;99.90
4215;DHT22;2121;48.062;7.850;2023-07-29T06:26:37;18.40;99.90
4215;DHT22;2121;48.062;7.850;2023-07-29T06:29:03;18.40;99.90
4215;DHT22;2121;48.062;7.850;2023-07-29T06:31:28;18.30;99.90
4215;DHT22;2121;48.062;7.850;2023-07-29T06:33:55;18.30;99.90
4215;DHT22;2121;48.062;7.850;2023-07-29T06:36:20;18.30;99.90
4215;DHT22;2121;48.062;7.850;2023-07-29T06:38:46;18.40;99.90
4215;DHT22;2121;48.062;7.850;2023-07-29T06:41:12;18.40;99.90
4215;DHT22;2121;48.062;7.850;2023-07-29T06:43:38;18.40;99.90
4215;DHT22;2121;48.062;7.850;2023-07-29T06:46:04;18.50;99.90
4215;DHT22;2121;48.062;7.850;2023-07-29T06:48:29;18.70;99.90
4215;DHT22;2121;48.062;7.850;2023-07-29T06:50:55;18.80;99.90
4215;DHT22;2121;48.062;7.850;2023-07-29T06:53:26;18.90;99.90
4215;DHT22;2121;48.062;7.850;2023-07-29T06:55:52;19.00;99.90
4215;DHT22;2121;48.062;7.850;2023-07-29T06:58:18;19.20;99.90
4215;DHT22;2121;48.062;7.850;2023-07-29T07:00:44;19.30;99.90
4215;DHT22;2121;48.062;7.850;2023-07-29T07:03:10;19.30;99.90
4215;DHT22;2121;48.062;7.850;2023-07-29T07:05:35;19.40;99.90
4215;DHT22;2121;48.062;7.850;2023-07-29T07:08:01;19.60;99.90
4215;DHT22;2121;48.062;7.850;2023-07-29T07:10:27;19.70;99.90
4215;DHT22;2121;48.062;7.850;2023-07-29T07:12:52;19.80;99.90
4215;DHT22;2121;48.062;7.850;2023-07-29T07:15:18;19.90;99.90
4215;DHT22;2121;48.062;7.850;2023-07-29T07:17:44;19.90;99.90
4215;DHT22;2121;48.062;7.850;2023-07-29T07:20:10;20.00;99.90
4215;DHT22;2121;48.062;7.850;2023-07-29T07:22:36;20.10;99.90
4215;DHT22;2121;48.062;7.850;2023-07-29T07:25:03;20.20;99.90
4215;DHT22;2121;48.062;7.850;2023-07-29T07:27:29;20.30;99.90
4215;DHT22;2121;48.062;7.850;2023-07-29T07:29:54;20.30;99.90
4215;DHT22;2121;48.062;7.850;2023-07-29T07:32:20;20.30;99.90
4215;DHT22;2121;48.062;7.850;2023-07-29T07:34:46;20.50;99.90
4215;DHT22;2121;48.062;7.850;2023-07-29T07:37:11;20.80;99.90
4215;DHT22;2121;48.062;7.850;2023-07-29T07:39:37;21.10;99.90
4215;DHT22;2121;48.062;7.850;2023-07-29T07:42:03;21.30;99.90
4215;DHT22;2121;48.062;7.850;2023-07-29T07:44:29;21.50;99.90
4215;DHT22;2121;48.062;7.850;2023-07-29T07:46:55;21.80;99.90
4215;DHT22;2121;48.062;7.850;2023-07-29T07:49:20;22.10;99.90
4215;DHT22;2121;48.062;7.850;2023-07-29T07:51:46;22.30;99.90
4215;DHT22;2121;48.062;7.850;2023-07-29T07:54:12;22.60;99.90
4215;DHT22;2121;48.062;7.850;2023-07-29T07:56:38;22.70;99.90
4215;DHT22;2121;48.062;7.850;2023-07-29T07:59:04;22.80;99.90
4215;DHT22;2121;48.062;7.850;2023-07-29T08:01:37;22.70;99.90
4215;DHT22;2121;48.062;7.850;2023-07-29T08:04:04;22.90;99.90
4215;DHT22;2121;48.062;7.850;2023-07-29T08:06:30;23.20;99.90
4215;DHT22;2121;48.062;7.850;2023-07-29T08:08:57;23.30;99.90
4215;DHT22;2121;48.062;7.850;2023-07-29T08:11:22;23.50;99.90
4215;DHT22;2121;48.062;7.850;2023-07-29T08:13:48;23.60;99.90
4215;DHT22;2121;48.062;7.850;2023-07-29T08:16:14;24.00;99.90
4215;DHT22;2121;48.062;7.850;2023-07-29T08:18:40;24.30;99.90
4215;DHT22;2121;48.062;7.850;2023-07-29T08:21:06;24.50;99.90
4215;DHT22;2121;48.062;7.850;2023-07-29T08:23:34;24.00;99.90
4215;DHT22;2121;48.062;7.850;2023-07-29T08:26:03;23.70;99.90
4215;DHT22;2121;48.062;7.850;2023-07-29T08:28:32;23.60;99.90
4215;DHT22;2121;48.062;7.850;2023-07-29T08:31:02;23.70;99.90
4215;DHT22;2121;48.062;7.850;2023-07-29T08:33:28;23.70;99.90
4215;DHT22;2121;48.062;7.850;2023-07-29T08:35:54;23.60;99.90
4215;DHT22;2121;48.062;7.850;2023-07-29T08:38:21;23.60;99.90
4215;DHT22;2121;48.062;7.850;2023-07-29T08:41:13;23.60;99.90
4215;DHT22;2121;48.062;7.850;2023-07-29T08:43:49;23.60;99.90
4215;DHT22;2121;48.062;7.850;2023-07-29T08:46:19;23.50;99.90
4215;DHT22;2121;48.062;7.850;2023-07-29T08:48:46;23.60;99.90
4215;DHT22;2121;48.062;7.850;2023-07-29T08:51:12;23.70;99.90
4215;DHT22;2121;48.062;7.850;2023-07-29T08:53:39;23.70;99.90
4215;DHT22;2121;48.062;7.850;2023-07-29T08:56:06;23.90;99.90
4215;DHT22;2121;48.062;7.850;2023-07-29T08:58:32;24.10;99.90
4215;DHT22;2121;48.062;7.850;2023-07-29T09:00:59;24.20;99.90
4215;DHT22;2121;48.062;7.850;2023-07-29T09:03:25;24.60;99.90
4215;DHT22;2121;48.062;7.850;2023-07-29T09:05:51;24.80;99.90
4215;DHT22;2121;48.062;7.850;2023-07-29T09:08:18;25.00;99.90
4215;DHT22;2121;48.062;7.850;2023-07-29T09:10:44;25.00;99.90
4215;DHT22;2121;48.062;7.850;2023-07-29T09:13:10;25.00;99.90
4215;DHT22;2121;48.062;7.850;2023-07-29T09:15:37;25.00;99.90
4215;DHT22;2121;48.062;7.850;2023-07-29T09:18:15;25.00;99.90
4215;DHT22;2121;48.062;7.850;2023-07-29T09:20:43;25.00;99.90
4215;DHT22;2121;48.062;7.850;2023-07-29T09:23:09;24.70;99.90
4215;DHT22;2121;48.062;7.850;2023-07-29T09:25:36;24.80;99.90
4215;DHT22;2121;48.062;7.850;2023-07-29T09:28:11;24.80;99.90
4215;DHT22;2121;48.062;7.850;2023-07-29T09:30:46;25.10;99.90
4215;DHT22;2121;48.062;7.850;2023-07-29T09:33:12;25.20;99.90
4215;DHT22;2121;48.062;7.850;2023-07-29T09:35:38;25.20;99.90
4215;DHT22;2121;48.062;7.850;2023-07-29T09:38:05;24.80;99.90
4215;DHT22;2121;48.062;7.850;2023-07-29T09:40:36;25.10;99.90
4215;DHT22;2121;48.062;7.850;2023-07-29T09:43:04;25.30;99.90
4215;DHT22;2121;48.062;7.850;2023-07-29T09:45:32;25.20;99.90
4215;DHT22;2121;48.062;7.850;2023-07-29T09:47:58;25.10;99.90
4215;DHT22;2121;48.062;7.850;2023-07-29T09:50:25;25.20;99.90
4215;DHT22;2121;48.062;7.850;2023-07-29T09:52:52;25.30;99.90
4215;DHT22;2121;48.062;7.850;2023-07-29T09:55:23;25.60;99.90
4215;DHT22;2121;48.062;7.850;2023-07-29T09:57:57;26.00;99.90
4215;DHT22;2121;48.062;7.850;2023-07-29T10:00:30;25.50;99.90
4215;DHT22;2121;48.062;7.850;2023-07-29T10:02:57;25.70;99.90
4215;DHT22;2121;48.062;7.850;2023-07-29T10:05:26;25.80;99.90
4215;DHT22;2121;48.062;7.850;2023-07-29T10:07:54;25.60;99.90
4215;DHT22;2121;48.062;7.850;2023-07-29T10:10:20;25.50;99.90
4215;DHT22;2121;48.062;7.850;2023-07-29T10:12:46;25.50;99.90
4215;DHT22;2121;48.062;7.850;2023-07-29T10:15:13;25.40;99.90
4215;DHT22;2121;48.062;7.850;2023-07-29T10:17:40;25.40;99.90
4215;DHT22;2121;48.062;7.850;2023-07-29T10:20:08;25.50;99.90
4215;DHT22;2121;48.062;7.850;2023-07-29T10:22:40;25.40;99.90
4215;DHT22;2121;48.062;7.850;2023-07-29T10:25:16;25.50;99.90
4215;DHT22;2121;48.062;7.850;2023-07-29T10:27:48;25.40;99.90
4215;DHT22;2121;48.062;7.850;2023-07-29T10:30:15;25.30;99.90
4215;DHT22;2121;48.062;7.850;2023-07-29T10:32:45;25.20;99.90
4215;DHT22;2121;48.062;7.850;2023-07-29T10:35:15;25.30;99.90
4215;DHT22;2121;48.062;7.850;2023-07-29T10:37:41;25.40;99.90
4215;DHT22;2121;48.062;7.850;2023-07-29T10:40:09;25.60;99.90
4215;DHT22;2121;48.062;7.850;2023-07-29T10:42:38;25.90;99.90
4215;DHT22;2121;48.062;7.850;2023-07-29T10:45:21;26.40;99.90
4215;DHT22;2121;48.062;7.850;2023-07-29T10:47:47;26.90;99.90
4215;DHT22;2121;48.062;7.850;2023-07-29T10:50:21;26.60;99.90
4215;DHT22;2121;48.062;7.850;2023-07-29T10:52:52;26.70;99.90
4215;DHT22;2121;48.062;7.850;2023-07-29T10:55:30;26.70;99.90
4215;DHT22;2121;48.062;7.850;2023-07-29T11:00:34;26.90;99.90
4215;DHT22;2121;48.062;7.850;2023-07-29T11:03:02;27.00;99.90
4215;DHT22;2121;48.062;7.850;2023-07-29T11:10:58;28.40;99.90
4215;DHT22;2121;48.062;7.850;2023-07-29T11:13:36;28.70;99.90
4215;DHT22;2121;48.062;7.850;2023-07-29T11:16:03;28.30;99.90
4215;DHT22;2121;48.062;7.850;2023-07-29T11:18:33;28.00;99.90
4215;DHT22;2121;48.062;7.850;2023-07-29T11:21:00;28.10;99.90
4215;DHT22;2121;48.062;7.850;2023-07-29T11:23:28;28.10;99.90
4215;DHT22;2121;48.062;7.850;2023-07-29T11:25:59;28.10;99.90
4215;DHT22;2121;48.062;7.850;2023-07-29T11:28:27;28.10;99.90
4215;DHT22;2121;48.062;7.850;2023-07-29T11:30:57;27.90;99.90
4215;DHT22;2121;48.062;7.850;2023-07-29T11:33:25;28.10;99.90
4215;DHT22;2121;48.062;7.850;2023-07-29T11:35:53;28.30;99.90
4215;DHT22;2121;48.062;7.850;2023-07-29T11:38:21;28.60;99.90
4215;DHT22;2121;48.062;7.850;2023-07-29T11:41:01;28.60;99.90
4215;DHT22;2121;48.062;7.850;2023-07-29T11:43:35;28.50;99.90
4215;DHT22;2121;48.062;7.850;2023-07-29T11:46:01;28.80;99.90
4215;DHT22;2121;48.062;7.850;2023-07-29T11:48:32;28.90;99.90
4215;DHT22;2121;48.062;7.850;2023-07-29T11:50:58;28.80;99.90
4215;DHT22;2121;48.062;7.850;2023-07-29T11:53:28;28.70;99.90
4215;DHT22;2121;48.062;7.850;2023-07-29T11:55:55;28.80;99.90
4215;DHT22;2121;48.062;7.850;2023-07-29T11:58:20;28.70;99.90
4215;DHT22;2121;48.062;7.850;2023-07-29T12:00:46;28.60;99.90
4215;DHT22;2121;48.062;7.850;2023-07-29T12:03:13;28.70;99.90
4215;DHT22;2121;48.062;7.850;2023-07-29T12:05:40;29.30;99.90
4215;DHT22;2121;48.062;7.850;2023-07-29T12:08:08;30.00;99.80
4215;DHT22;2121;48.062;7.850;2023-07-29T12:10:34;29.90;98.90
4215;DHT22;2121;48.062;7.850;2023-07-29T12:13:02;29.90;98.60
4215;DHT22;2121;48.062;7.850;2023-07-29T12:15:29;29.60;98.60
4215;DHT22;2121;48.062;7.850;2023-07-29T12:17:56;29.80;99.90
4215;DHT22;2121;48.062;7.850;2023-07-29T12:20:23;30.20;99.10
4215;DHT22;2121;48.062;7.850;2023-07-29T12:22:56;30.30;98.90
4215;DHT22;2121;48.062;7.850;2023-07-29T12:25:25;29.70;98.20
4215;DHT22;2121;48.062;7.850;2023-07-29T12:27:51;29.00;99.00
4215;DHT22;2121;48.062;7.850;2023-07-29T12:30:21;28.80;99.60
4215;DHT22;2121;48.062;7.850;2023-07-29T12:32:47;28.90;99.40
4215;DHT22;2121;48.062;7.850;2023-07-29T12:35:14;28.90;99.90
4215;DHT22;2121;48.062;7.850;2023-07-29T12:37:40;28.80;99.10
4215;DHT22;2121;48.062;7.850;2023-07-29T12:40:22;28.30;99.90
4215;DHT22;2121;48.062;7.850;2023-07-29T12:42:49;27.60;99.90
4215;DHT22;2121;48.062;7.850;2023-07-29T12:45:16;27.40;99.90
4215;DHT22;2121;48.062;7.850;2023-07-29T12:47:43;27.50;99.90
4215;DHT22;2121;48.062;7.850;2023-07-29T12:50:09;27.60;99.90
4215;DHT22;2121;48.062;7.850;2023-07-29T12:52:35;27.60;99.90
4215;DHT22;2121;48.062;7.850;2023-07-29T12:55:01;27.70;99.90
4215;DHT22;2121;48.062;7.850;2023-07-29T12:57:27;27.90;99.90
4215;DHT22;2121;48.062;7.850;2023-07-29T12:59:52;28.00;99.90
4215;DHT22;2121;48.062;7.850;2023-07-29T13:02:18;28.00;99.90
4215;DHT22;2121;48.062;7.850;2023-07-29T13:04:43;28.30;99.90
4215;DHT22;2121;48.062;7.850;2023-07-29T13:07:09;28.50;99.90
4215;DHT22;2121;48.062;7.850;2023-07-29T13:09:35;28.30;99.90
4215;DHT22;2121;48.062;7.850;2023-07-29T13:12:01;28.30;99.90
4215;DHT22;2121;48.062;7.850;2023-07-29T13:14:27;28.80;99.60
4215;DHT22;2121;48.062;7.850;2023-07-29T13:16:52;29.60;99.70
4215;DHT22;2121;48.062;7.850;2023-07-29T13:19:21;30.60;98.30
4215;DHT22;2121;48.062;7.850;2023-07-29T13:21:47;31.20;97.40
4215;DHT22;2121;48.062;7.850;2023-07-29T13:24:12;30.80;97.30
4215;DHT22;2121;48.062;7.850;2023-07-29T13:26:38;30.60;98.00
4215;DHT22;2121;48.062;7.850;2023-07-29T13:29:04;30.10;97.80
4215;DHT22;2121;48.062;7.850;2023-07-29T13:31:29;30.00;98.30
4215;DHT22;2121;48.062;7.850;2023-07-29T13:33:56;29.70;98.20
4215;DHT22;2121;48.062;7.850;2023-07-29T13:36:21;29.80;97.60
4215;DHT22;2121;48.062;7.850;2023-07-29T13:38:47;30.60;96.60
4215;DHT22;2121;48.062;7.850;2023-07-29T13:41:13;30.10;97.30
4215;DHT22;2121;48.062;7.850;2023-07-29T13:43:38;29.50;98.00
4215;DHT22;2121;48.062;7.850;2023-07-29T13:46:04;29.00;98.10
4215;DHT22;2121;48.062;7.850;2023-07-29T13:48:30;28.50;99.90
4215;DHT22;2121;48.062;7.850;2023-07-29T13:50:55;27.80;99.90
4215;DHT22;2121;48.062;7.850;2023-07-29T13:53:21;27.30;99.90
4215;DHT22;2121;48.062;7.850;2023-07-29T13:55:47;27.10;99.90
4215;DHT22;2121;48.062;7.850;2023-07-29T13:58:13;27.10;99.90
4215;DHT22;2121;48.062;7.850;2023-07-29T14:00:38;27.30;99.90
4215;DHT22;2121;48.062;7.850;2023-07-29T14:03:04;27.10;99.90
4215;DHT22;2121;48.062;7.850;2023-07-29T14:05:30;26.70;99.90
4215;DHT22;2121;48.062;7.850;2023-07-29T14:07:55;27.50;99.90
4215;DHT22;2121;48.062;7.850;2023-07-29T14:10:21;28.10;99.90
4215;DHT22;2121;48.062;7.850;2023-07-29T14:12:47;28.30;99.90
4215;DHT22;2121;48.062;7.850;2023-07-29T14:15:12;28.50;99.50
4215;DHT22;2121;48.062;7.850;2023-07-29T14:17:38;27.90;99.90
4215;DHT22;2121;48.062;7.850;2023-07-29T14:20:04;27.50;99.90
4215;DHT22;2121;48.062;7.850;2023-07-29T14:22:30;27.20;99.90
4215;DHT22;2121;48.062;7.850;2023-07-29T14:24:56;27.10;99.90
4215;DHT22;2121;48.062;7.850;2023-07-29T14:27:22;27.00;99.90
4215;DHT22;2121;48.062;7.850;2023-07-29T14:29:47;26.80;99.90
4215;DHT22;2121;48.062;7.850;2023-07-29T14:32:13;26.70;99.90
4215;DHT22;2121;48.062;7.850;2023-07-29T14:34:39;26.50;99.90
4215;DHT22;2121;48.062;7.850;2023-07-29T14:37:05;26.30;99.90
4215;DHT22;2121;48.062;7.850;2023-07-29T14:39:31;26.20;99.90
4215;DHT22;2121;48.062;7.850;2023-07-29T14:41:56;26.00;99.90
4215;DHT22;2121;48.062;7.850;2023-07-29T14:44:22;25.70;99.90
4215;DHT22;2121;48.062;7.850;2023-07-29T14:46:48;25.50;99.90
4215;DHT22;2121;48.062;7.850;2023-07-29T14:49:13;25.30;99.90
4215;DHT22;2121;48.062;7.850;2023-07-29T14:51:39;25.20;99.90
4215;DHT22;2121;48.062;7.850;2023-07-29T14:54:05;25.00;99.90
4215;DHT22;2121;48.062;7.850;2023-07-29T14:56:31;24.40;99.90
4215;DHT22;2121;48.062;7.850;2023-07-29T14:58:56;23.30;99.90
4215;DHT22;2121;48.062;7.850;2023-07-29T15:01:22;22.50;99.90
4215;DHT22;2121;48.062;7.850;2023-07-29T15:03:48;22.00;99.90
4215;DHT22;2121;48.062;7.850;2023-07-29T15:06:13;21.60;99.90
4215;DHT22;2121;48.062;7.850;2023-07-29T15:08:39;21.30;99.90
4215;DHT22;2121;48.062;7.850;2023-07-29T15:11:05;21.20;99.90
4215;DHT22;2121;48.062;7.850;2023-07-29T15:13:31;21.10;99.90
4215;DHT22;2121;48.062;7.850;2023-07-29T15:15:56;21.20;99.90
4215;DHT22;2121;48.062;7.850;2023-07-29T15:18:22;21.80;99.90
4215;DHT22;2121;48.062;7.850;2023-07-29T15:20:48;22.00;99.90
4215;DHT22;2121;48.062;7.850;2023-07-29T15:23:13;22.20;99.90
4215;DHT22;2121;48.062;7.850;2023-07-29T15:25:39;22.40;99.90
4215;DHT22;2121;48.062;7.850;2023-07-29T15:28:05;22.50;99.90
4215;DHT22;2121;48.062;7.850;2023-07-29T15:30:30;22.80;99.90
4215;DHT22;2121;48.062;7.850;2023-07-29T15:32:56;23.40;99.90
4215;DHT22;2121;48.062;7.850;2023-07-29T15:35:22;24.10;99.90
4215;DHT22;2121;48.062;7.850;2023-07-29T15:37:48;24.80;99.90
4215;DHT22;2121;48.062;7.850;2023-07-29T15:40:14;24.80;99.90
4215;DHT22;2121;48.062;7.850;2023-07-29T15:42:39;25.00;99.90
4215;DHT22;2121;48.062;7.850;2023-07-29T15:45:05;25.20;99.90
4215;DHT22;2121;48.062;7.850;2023-07-29T15:47:32;25.80;99.90
4215;DHT22;2121;48.062;7.850;2023-07-29T15:49:57;27.00;99.90
4215;DHT22;2121;48.062;7.850;2023-07-29T15:52:23;28.20;99.90
4215;DHT22;2121;48.062;7.850;2023-07-29T15:54:51;29.90;99.90
4215;DHT22;2121;48.062;7.850;2023-07-29T15:57:17;29.90;99.90
4215;DHT22;2121;48.062;7.850;2023-07-29T15:59:43;29.20;99.90
4215;DHT22;2121;48.062;7.850;2023-07-29T16:02:08;28.30;99.90
4215;DHT22;2121;48.062;7.850;2023-07-29T16:04:35;26.80;99.90
4215;DHT22;2121;48.062;7.850;2023-07-29T16:07:00;26.80;99.90
4215;DHT22;2121;48.062;7.850;2023-07-29T16:09:26;27.60;99.90
4215;DHT22;2121;48.062;7.850;2023-07-29T16:11:52;29.10;99.90
4215;DHT22;2121;48.062;7.850;2023-07-29T16:14:17;28.50;99.90
4215;DHT22;2121;48.062;7.850;2023-07-29T16:16:45;27.90;99.90